Aeroglen, Queensland

4:21 PM AEST on February 10, 2016 (GMT +1000)
Manoora Cairns | | Change Station
CLOSE
Current Station
Personal Weather Station
Location: Manoora, QUEENSLAND
Elevation: 19 ft
Nearby Weather Stations

Elev 19 ft 16.91 °S, 145.74 °E | Updated 5 seconds ago

Mostly Cloudy
Mostly Cloudy
84.2 °F
Feels Like 91 °F
N
3.6
Wind Variable Wind from North
Gusts 4.9 mph

Today
High -- | Low -- °F
--% Chance of Precip.
Yesterday
High -- | Low -- °F
Precip. -- in
Pressure 29.71 in
Visibility 6.2 miles
Clouds Few 2500 ft
Mostly Cloudy 7000 ft
Heat Index 91 °F
Dew Point 73 °F
Humidity 70%
Rainfall 0.02 in
Snow Depth Not available.
6:09 AM 6:52 PM
Waxing Crescent, 4% visible
METAR YBCS 100600Z 18008KT 9999 FEW025 BKN070 28/23 Q1006 NOSIG
Pressure 29.71 in
Visibility 6.2 miles
Clouds Few 2500 ft
Mostly Cloudy 7000 ft
Heat Index 91 °F
Dew Point 73 °F
Humidity 70%
Rainfall 0.02 in
Snow Depth Not available.
6:09 AM 6:52 PM
Waxing Crescent, 4% visible
METAR YBCS 100600Z 18008KT 9999 FEW025 BKN070 28/23 Q1006 NOSIG

10-Day Weather Forecast

Almanac

Astronomy

Feb. 10, 2016 Rise Set
Actual Time
Civil Twilight
Nautical Twilight
Astronomical Twilight
Moon
Length of Visible Light
Length of Day
Tomorrow will be .
, % of the Moon is Illuminated

Today's Extremes

Country Highs Country Lows

Community

WunderPhotos

Upload Photos

1,891,826 photos uploaded!

WunderBlog® & News

Nearby

Air Quality

  Air Quality AQ Index Pollutant
Not available.

Snow Depth

Station Depth Elevation

Earthquake Activity

City Distance Mag. Time & Date
Minimum magnitude displayed is 2.5.

Coastal Water Temperatures

Place Temperature

Stations

Nearby Weather Stations

Station Location Temp. Windchill Dew Point Humidity Wind Precip. Elev Updated Type